sensor_id;sensor_type;location;lat;lon;timestamp;P1;durP1;ratioP1;P2;durP2;ratioP2
82558;SDS011;72227;42.004;21.364;2023-09-30T00:04:14;8.55;;;3.80;;
82558;SDS011;72227;42.004;21.364;2023-09-30T00:06:40;10.63;;;4.65;;
82558;SDS011;72227;42.004;21.364;2023-09-30T00:12:10;8.32;;;3.85;;
82558;SDS011;72227;42.004;21.364;2023-09-30T00:14:36;12.45;;;4.22;;
82558;SDS011;72227;42.004;21.364;2023-09-30T00:17:02;9.40;;;4.63;;
82558;SDS011;72227;42.004;21.364;2023-09-30T00:19:29;13.07;;;4.30;;
82558;SDS011;72227;42.004;21.364;2023-09-30T00:21:57;10.50;;;4.68;;
82558;SDS011;72227;42.004;21.364;2023-09-30T00:24:25;10.27;;;4.20;;
82558;SDS011;72227;42.004;21.364;2023-09-30T00:26:51;8.35;;;4.00;;
82558;SDS011;72227;42.004;21.364;2023-09-30T00:29:17;10.95;;;4.00;;
82558;SDS011;72227;42.004;21.364;2023-09-30T00:31:43;10.80;;;4.30;;
82558;SDS011;72227;42.004;21.364;2023-09-30T00:34:09;10.00;;;4.30;;
82558;SDS011;72227;42.004;21.364;2023-09-30T00:36:35;12.82;;;4.03;;
82558;SDS011;72227;42.004;21.364;2023-09-30T00:39:02;8.07;;;4.05;;
82558;SDS011;72227;42.004;21.364;2023-09-30T00:41:28;7.97;;;4.10;;
82558;SDS011;72227;42.004;21.364;2023-09-30T00:43:55;9.63;;;4.43;;
82558;SDS011;72227;42.004;21.364;2023-09-30T00:48:47;9.13;;;4.88;;
82558;SDS011;72227;42.004;21.364;2023-09-30T00:51:13;10.63;;;4.22;;
82558;SDS011;72227;42.004;21.364;2023-09-30T00:53:39;10.88;;;4.07;;
82558;SDS011;72227;42.004;21.364;2023-09-30T00:56:06;11.57;;;4.22;;
82558;SDS011;72227;42.004;21.364;2023-09-30T00:58:32;9.85;;;4.68;;
82558;SDS011;72227;42.004;21.364;2023-09-30T01:00:59;11.05;;;4.13;;
82558;SDS011;72227;42.004;21.364;2023-09-30T01:03:26;8.88;;;3.90;;
82558;SDS011;72227;42.004;21.364;2023-09-30T01:05:52;11.93;;;4.65;;
82558;SDS011;72227;42.004;21.364;2023-09-30T01:08:19;9.13;;;4.07;;
82558;SDS011;72227;42.004;21.364;2023-09-30T01:10:45;7.80;;;4.43;;
82558;SDS011;72227;42.004;21.364;2023-09-30T01:13:12;11.20;;;4.22;;
82558;SDS011;72227;42.004;21.364;2023-09-30T01:15:38;11.07;;;4.35;;
82558;SDS011;72227;42.004;21.364;2023-09-30T01:18:04;9.55;;;4.60;;
82558;SDS011;72227;42.004;21.364;2023-09-30T01:20:30;13.35;;;4.32;;
82558;SDS011;72227;42.004;21.364;2023-09-30T01:23:08;12.55;;;5.55;;
82558;SDS011;72227;42.004;21.364;2023-09-30T01:25:36;11.13;;;4.07;;
82558;SDS011;72227;42.004;21.364;2023-09-30T01:28:06;9.55;;;4.03;;
82558;SDS011;72227;42.004;21.364;2023-09-30T01:30:33;11.10;;;4.78;;
82558;SDS011;72227;42.004;21.364;2023-09-30T01:32:59;11.15;;;5.38;;
82558;SDS011;72227;42.004;21.364;2023-09-30T01:35:25;11.55;;;4.13;;
82558;SDS011;72227;42.004;21.364;2023-09-30T01:37:52;9.40;;;4.88;;
82558;SDS011;72227;42.004;21.364;2023-09-30T01:46:25;10.18;;;4.78;;
82558;SDS011;72227;42.004;21.364;2023-09-30T01:48:51;12.98;;;5.03;;
82558;SDS011;72227;42.004;21.364;2023-09-30T01:51:17;9.15;;;4.47;;
82558;SDS011;72227;42.004;21.364;2023-09-30T01:53:43;9.38;;;4.63;;
82558;SDS011;72227;42.004;21.364;2023-09-30T01:56:09;10.93;;;4.32;;
82558;SDS011;72227;42.004;21.364;2023-09-30T01:58:52;12.60;;;4.72;;
82558;SDS011;72227;42.004;21.364;2023-09-30T02:01:18;8.40;;;5.22;;
82558;SDS011;72227;42.004;21.364;2023-09-30T02:03:44;10.55;;;4.70;;
82558;SDS011;72227;42.004;21.364;2023-09-30T02:06:11;10.23;;;3.92;;
82558;SDS011;72227;42.004;21.364;2023-09-30T02:08:37;9.15;;;3.63;;
82558;SDS011;72227;42.004;21.364;2023-09-30T02:11:03;10.95;;;4.63;;
82558;SDS011;72227;42.004;21.364;2023-09-30T02:13:33;11.45;;;4.68;;
82558;SDS011;72227;42.004;21.364;2023-09-30T02:16:03;8.77;;;4.50;;
82558;SDS011;72227;42.004;21.364;2023-09-30T02:18:29;10.07;;;4.38;;
82558;SDS011;72227;42.004;21.364;2023-09-30T02:20:57;9.85;;;4.75;;
82558;SDS011;72227;42.004;21.364;2023-09-30T02:23:24;7.53;;;4.38;;
82558;SDS011;72227;42.004;21.364;2023-09-30T02:25:56;12.77;;;4.82;;
82558;SDS011;72227;42.004;21.364;2023-09-30T02:28:22;10.43;;;4.88;;
82558;SDS011;72227;42.004;21.364;2023-09-30T02:30:48;7.88;;;4.07;;
82558;SDS011;72227;42.004;21.364;2023-09-30T02:33:14;9.70;;;4.53;;
82558;SDS011;72227;42.004;21.364;2023-09-30T02:35:43;13.35;;;5.30;;
82558;SDS011;72227;42.004;21.364;2023-09-30T02:38:10;9.15;;;4.18;;
82558;SDS011;72227;42.004;21.364;2023-09-30T02:46:34;11.45;;;4.70;;
82558;SDS011;72227;42.004;21.364;2023-09-30T02:49:03;9.05;;;4.55;;
82558;SDS011;72227;42.004;21.364;2023-09-30T02:51:29;11.90;;;4.60;;
82558;SDS011;72227;42.004;21.364;2023-09-30T02:53:55;10.48;;;5.00;;
82558;SDS011;72227;42.004;21.364;2023-09-30T02:56:21;10.05;;;5.03;;
82558;SDS011;72227;42.004;21.364;2023-09-30T02:58:50;9.00;;;5.05;;
82558;SDS011;72227;42.004;21.364;2023-09-30T03:01:19;15.48;;;5.00;;
82558;SDS011;72227;42.004;21.364;2023-09-30T03:03:46;10.27;;;4.50;;
82558;SDS011;72227;42.004;21.364;2023-09-30T03:06:12;9.15;;;5.00;;
82558;SDS011;72227;42.004;21.364;2023-09-30T03:08:39;10.23;;;4.60;;
82558;SDS011;72227;42.004;21.364;2023-09-30T03:11:06;10.25;;;4.28;;
82558;SDS011;72227;42.004;21.364;2023-09-30T03:13:32;13.32;;;5.40;;
82558;SDS011;72227;42.004;21.364;2023-09-30T03:15:59;8.32;;;4.32;;
82558;SDS011;72227;42.004;21.364;2023-09-30T03:18:26;9.80;;;5.45;;
82558;SDS011;72227;42.004;21.364;2023-09-30T03:20:57;10.48;;;4.95;;
82558;SDS011;72227;42.004;21.364;2023-09-30T03:23:25;10.25;;;4.47;;
82558;SDS011;72227;42.004;21.364;2023-09-30T03:25:58;11.68;;;4.88;;
82558;SDS011;72227;42.004;21.364;2023-09-30T03:28:25;14.32;;;4.85;;
82558;SDS011;72227;42.004;21.364;2023-09-30T03:30:51;13.38;;;5.00;;
82558;SDS011;72227;42.004;21.364;2023-09-30T03:33:22;9.88;;;4.70;;
82558;SDS011;72227;42.004;21.364;2023-09-30T03:35:48;10.27;;;4.63;;
82558;SDS011;72227;42.004;21.364;2023-09-30T03:38:14;12.10;;;4.88;;
82558;SDS011;72227;42.004;21.364;2023-09-30T03:40:43;11.15;;;4.53;;
82558;SDS011;72227;42.004;21.364;2023-09-30T03:43:13;9.25;;;5.05;;
82558;SDS011;72227;42.004;21.364;2023-09-30T03:45:39;12.13;;;4.95;;
82558;SDS011;72227;42.004;21.364;2023-09-30T03:48:06;9.65;;;5.10;;
82558;SDS011;72227;42.004;21.364;2023-09-30T03:50:32;9.50;;;4.63;;
82558;SDS011;72227;42.004;21.364;2023-09-30T03:55:51;9.18;;;5.65;;
82558;SDS011;72227;42.004;21.364;2023-09-30T03:58:17;11.23;;;5.32;;
82558;SDS011;72227;42.004;21.364;2023-09-30T04:06:35;8.68;;;4.63;;
82558;SDS011;72227;42.004;21.364;2023-09-30T04:09:03;9.73;;;5.05;;
82558;SDS011;72227;42.004;21.364;2023-09-30T04:11:34;10.32;;;5.30;;
82558;SDS011;72227;42.004;21.364;2023-09-30T04:14:01;9.57;;;4.85;;
82558;SDS011;72227;42.004;21.364;2023-09-30T04:16:27;7.85;;;4.20;;
82558;SDS011;72227;42.004;21.364;2023-09-30T04:18:55;12.20;;;5.78;;
82558;SDS011;72227;42.004;21.364;2023-09-30T04:21:21;8.82;;;4.43;;
82558;SDS011;72227;42.004;21.364;2023-09-30T04:23:47;9.18;;;4.95;;
82558;SDS011;72227;42.004;21.364;2023-09-30T04:26:14;9.40;;;4.47;;
82558;SDS011;72227;42.004;21.364;2023-09-30T04:28:40;11.50;;;4.57;;
82558;SDS011;72227;42.004;21.364;2023-09-30T04:31:06;11.50;;;5.05;;
82558;SDS011;72227;42.004;21.364;2023-09-30T04:33:33;10.60;;;4.53;;
82558;SDS011;72227;42.004;21.364;2023-09-30T04:36:01;10.48;;;6.63;;
82558;SDS011;72227;42.004;21.364;2023-09-30T04:47:16;11.50;;;5.00;;
82558;SDS011;72227;42.004;21.364;2023-09-30T04:49:44;10.82;;;4.93;;
82558;SDS011;72227;42.004;21.364;2023-09-30T04:52:10;11.75;;;5.57;;
82558;SDS011;72227;42.004;21.364;2023-09-30T04:54:36;10.70;;;5.28;;
82558;SDS011;72227;42.004;21.364;2023-09-30T04:57:02;9.23;;;5.10;;
82558;SDS011;72227;42.004;21.364;2023-09-30T04:59:28;8.73;;;4.47;;
82558;SDS011;72227;42.004;21.364;2023-09-30T05:01:55;10.02;;;4.82;;
82558;SDS011;72227;42.004;21.364;2023-09-30T05:04:21;10.68;;;5.95;;
82558;SDS011;72227;42.004;21.364;2023-09-30T05:06:51;11.80;;;6.20;;
82558;SDS011;72227;42.004;21.364;2023-09-30T05:09:17;15.27;;;6.30;;
82558;SDS011;72227;42.004;21.364;2023-09-30T05:11:43;12.70;;;6.20;;
82558;SDS011;72227;42.004;21.364;2023-09-30T05:14:09;12.23;;;7.20;;
82558;SDS011;72227;42.004;21.364;2023-09-30T05:16:35;13.38;;;5.75;;
82558;SDS011;72227;42.004;21.364;2023-09-30T05:19:01;8.30;;;5.35;;
82558;SDS011;72227;42.004;21.364;2023-09-30T05:21:29;9.75;;;5.40;;
82558;SDS011;72227;42.004;21.364;2023-09-30T05:23:55;9.60;;;5.60;;
82558;SDS011;72227;42.004;21.364;2023-09-30T05:26:21;16.08;;;6.15;;
82558;SDS011;72227;42.004;21.364;2023-09-30T05:28:47;10.88;;;5.80;;
82558;SDS011;72227;42.004;21.364;2023-09-30T05:31:14;12.13;;;5.90;;
82558;SDS011;72227;42.004;21.364;2023-09-30T05:33:40;12.85;;;7.30;;
82558;SDS011;72227;42.004;21.364;2023-09-30T05:36:06;10.85;;;5.88;;
82558;SDS011;72227;42.004;21.364;2023-09-30T05:38:32;9.63;;;5.47;;
82558;SDS011;72227;42.004;21.364;2023-09-30T05:40:58;13.60;;;5.47;;
82558;SDS011;72227;42.004;21.364;2023-09-30T05:43:24;10.90;;;5.40;;
82558;SDS011;72227;42.004;21.364;2023-09-30T05:45:52;11.10;;;5.15;;
82558;SDS011;72227;42.004;21.364;2023-09-30T05:48:22;12.32;;;6.03;;
82558;SDS011;72227;42.004;21.364;2023-09-30T05:50:49;13.48;;;7.60;;
82558;SDS011;72227;42.004;21.364;2023-09-30T05:53:15;12.35;;;6.20;;
82558;SDS011;72227;42.004;21.364;2023-09-30T05:55:41;9.95;;;5.85;;
82558;SDS011;72227;42.004;21.364;2023-09-30T06:00:45;14.45;;;5.80;;
82558;SDS011;72227;42.004;21.364;2023-09-30T06:03:11;11.98;;;5.57;;
82558;SDS011;72227;42.004;21.364;2023-09-30T06:05:41;9.50;;;5.72;;
82558;SDS011;72227;42.004;21.364;2023-09-30T06:08:07;13.00;;;7.63;;
82558;SDS011;72227;42.004;21.364;2023-09-30T06:10:35;15.80;;;8.48;;
82558;SDS011;72227;42.004;21.364;2023-09-30T06:13:03;21.38;;;11.25;;
82558;SDS011;72227;42.004;21.364;2023-09-30T06:15:30;17.30;;;9.90;;
82558;SDS011;72227;42.004;21.364;2023-09-30T06:17:57;12.48;;;6.63;;
82558;SDS011;72227;42.004;21.364;2023-09-30T06:20:25;12.57;;;5.63;;
82558;SDS011;72227;42.004;21.364;2023-09-30T06:22:51;10.07;;;5.72;;
82558;SDS011;72227;42.004;21.364;2023-09-30T06:25:21;13.13;;;5.75;;
82558;SDS011;72227;42.004;21.364;2023-09-30T06:27:49;13.00;;;8.13;;
82558;SDS011;72227;42.004;21.364;2023-09-30T06:30:16;16.25;;;7.63;;
82558;SDS011;72227;42.004;21.364;2023-09-30T06:32:42;14.25;;;7.32;;
82558;SDS011;72227;42.004;21.364;2023-09-30T06:35:11;13.40;;;8.10;;
82558;SDS011;72227;42.004;21.364;2023-09-30T06:37:37;15.05;;;8.45;;
82558;SDS011;72227;42.004;21.364;2023-09-30T06:40:07;14.48;;;7.50;;
82558;SDS011;72227;42.004;21.364;2023-09-30T06:42:33;16.75;;;7.57;;
82558;SDS011;72227;42.004;21.364;2023-09-30T06:45:00;15.30;;;10.23;;
82558;SDS011;72227;42.004;21.364;2023-09-30T06:47:30;15.75;;;7.68;;
82558;SDS011;72227;42.004;21.364;2023-09-30T06:49:58;14.95;;;7.90;;
82558;SDS011;72227;42.004;21.364;2023-09-30T06:52:24;12.75;;;6.35;;
82558;SDS011;72227;42.004;21.364;2023-09-30T06:54:52;11.15;;;6.60;;
82558;SDS011;72227;42.004;21.364;2023-09-30T06:57:18;10.35;;;6.22;;
82558;SDS011;72227;42.004;21.364;2023-09-30T06:59:44;13.95;;;7.60;;
82558;SDS011;72227;42.004;21.364;2023-09-30T07:02:10;14.70;;;8.88;;
82558;SDS011;72227;42.004;21.364;2023-09-30T07:04:36;18.02;;;8.68;;
82558;SDS011;72227;42.004;21.364;2023-09-30T07:07:02;13.82;;;8.45;;
82558;SDS011;72227;42.004;21.364;2023-09-30T07:09:29;14.27;;;8.60;;
82558;SDS011;72227;42.004;21.364;2023-09-30T07:11:55;11.70;;;7.32;;
82558;SDS011;72227;42.004;21.364;2023-09-30T07:14:21;12.15;;;6.57;;
82558;SDS011;72227;42.004;21.364;2023-09-30T07:16:47;13.43;;;6.40;;
82558;SDS011;72227;42.004;21.364;2023-09-30T07:19:13;13.07;;;6.65;;
82558;SDS011;72227;42.004;21.364;2023-09-30T07:21:39;15.43;;;8.52;;
82558;SDS011;72227;42.004;21.364;2023-09-30T07:24:05;15.63;;;8.85;;
82558;SDS011;72227;42.004;21.364;2023-09-30T07:26:32;16.05;;;9.10;;
82558;SDS011;72227;42.004;21.364;2023-09-30T07:28:58;16.25;;;10.02;;
82558;SDS011;72227;42.004;21.364;2023-09-30T07:31:24;16.25;;;9.18;;
82558;SDS011;72227;42.004;21.364;2023-09-30T07:33:50;14.45;;;9.43;;
82558;SDS011;72227;42.004;21.364;2023-09-30T07:36:17;14.35;;;7.95;;
82558;SDS011;72227;42.004;21.364;2023-09-30T07:38:43;28.25;;;9.93;;
82558;SDS011;72227;42.004;21.364;2023-09-30T07:41:09;14.75;;;8.00;;
82558;SDS011;72227;42.004;21.364;2023-09-30T07:43:35;11.27;;;5.50;;
82558;SDS011;72227;42.004;21.364;2023-09-30T07:46:05;13.65;;;7.53;;
82558;SDS011;72227;42.004;21.364;2023-09-30T07:48:32;13.02;;;6.88;;
82558;SDS011;72227;42.004;21.364;2023-09-30T07:50:58;17.55;;;7.25;;
82558;SDS011;72227;42.004;21.364;2023-09-30T07:53:24;14.98;;;6.97;;
82558;SDS011;72227;42.004;21.364;2023-09-30T07:55:50;13.02;;;5.65;;
82558;SDS011;72227;42.004;21.364;2023-09-30T07:58:17;17.05;;;6.40;;
82558;SDS011;72227;42.004;21.364;2023-09-30T08:00:43;13.45;;;5.80;;
82558;SDS011;72227;42.004;21.364;2023-09-30T08:03:10;11.43;;;5.75;;
82558;SDS011;72227;42.004;21.364;2023-09-30T08:05:37;8.85;;;4.80;;
82558;SDS011;72227;42.004;21.364;2023-09-30T08:08:03;13.68;;;4.97;;
82558;SDS011;72227;42.004;21.364;2023-09-30T08:10:31;10.07;;;5.18;;
82558;SDS011;72227;42.004;21.364;2023-09-30T08:12:57;10.27;;;4.38;;
82558;SDS011;72227;42.004;21.364;2023-09-30T08:15:27;11.68;;;4.80;;
82558;SDS011;72227;42.004;21.364;2023-09-30T08:17:53;11.93;;;4.80;;
82558;SDS011;72227;42.004;21.364;2023-09-30T08:20:19;11.68;;;5.28;;
82558;SDS011;72227;42.004;21.364;2023-09-30T08:22:45;11.43;;;4.85;;
82558;SDS011;72227;42.004;21.364;2023-09-30T08:25:12;12.18;;;5.25;;
82558;SDS011;72227;42.004;21.364;2023-09-30T08:27:38;12.07;;;5.57;;
82558;SDS011;72227;42.004;21.364;2023-09-30T08:30:05;12.10;;;4.82;;
82558;SDS011;72227;42.004;21.364;2023-09-30T08:32:32;9.35;;;4.95;;
82558;SDS011;72227;42.004;21.364;2023-09-30T08:34:58;13.70;;;5.65;;
82558;SDS011;72227;42.004;21.364;2023-09-30T08:37:24;12.20;;;4.40;;
82558;SDS011;72227;42.004;21.364;2023-09-30T08:39:52;8.63;;;4.55;;
82558;SDS011;72227;42.004;21.364;2023-09-30T08:42:18;12.70;;;6.38;;
82558;SDS011;72227;42.004;21.364;2023-09-30T08:44:45;10.90;;;5.53;;
82558;SDS011;72227;42.004;21.364;2023-09-30T08:47:12;10.75;;;4.80;;
82558;SDS011;72227;42.004;21.364;2023-09-30T08:49:38;12.38;;;5.88;;
82558;SDS011;72227;42.004;21.364;2023-09-30T08:52:05;9.80;;;5.53;;
82558;SDS011;72227;42.004;21.364;2023-09-30T08:54:31;8.57;;;4.65;;
82558;SDS011;72227;42.004;21.364;2023-09-30T08:56:58;13.48;;;4.63;;
82558;SDS011;72227;42.004;21.364;2023-09-30T08:59:28;12.35;;;5.13;;
82558;SDS011;72227;42.004;21.364;2023-09-30T09:01:54;10.30;;;4.80;;
82558;SDS011;72227;42.004;21.364;2023-09-30T09:04:21;11.77;;;4.88;;
82558;SDS011;72227;42.004;21.364;2023-09-30T09:06:47;9.52;;;4.25;;
82558;SDS011;72227;42.004;21.364;2023-09-30T09:09:17;12.43;;;4.45;;
82558;SDS011;72227;42.004;21.364;2023-09-30T09:11:44;11.30;;;5.25;;
82558;SDS011;72227;42.004;21.364;2023-09-30T09:14:10;12.52;;;4.60;;
82558;SDS011;72227;42.004;21.364;2023-09-30T09:16:36;11.15;;;4.68;;
82558;SDS011;72227;42.004;21.364;2023-09-30T09:19:21;8.98;;;4.68;;
82558;SDS011;72227;42.004;21.364;2023-09-30T09:21:54;9.30;;;4.57;;
82558;SDS011;72227;42.004;21.364;2023-09-30T09:24:28;9.93;;;4.40;;
82558;SDS011;72227;42.004;21.364;2023-09-30T09:27:11;18.02;;;5.60;;
82558;SDS011;72227;42.004;21.364;2023-09-30T09:29:38;14.05;;;4.78;;
82558;SDS011;72227;42.004;21.364;2023-09-30T09:32:08;13.30;;;4.35;;
82558;SDS011;72227;42.004;21.364;2023-09-30T09:34:34;11.95;;;4.90;;
82558;SDS011;72227;42.004;21.364;2023-09-30T09:37:12;13.65;;;5.03;;
82558;SDS011;72227;42.004;21.364;2023-09-30T09:39:38;13.20;;;5.20;;
82558;SDS011;72227;42.004;21.364;2023-09-30T09:42:04;10.40;;;4.70;;
82558;SDS011;72227;42.004;21.364;2023-09-30T09:44:31;10.98;;;6.13;;
82558;SDS011;72227;42.004;21.364;2023-09-30T09:46:59;13.07;;;5.03;;
82558;SDS011;72227;42.004;21.364;2023-09-30T09:49:28;10.68;;;4.50;;
82558;SDS011;72227;42.004;21.364;2023-09-30T09:51:55;9.35;;;4.18;;
82558;SDS011;72227;42.004;21.364;2023-09-30T09:54:22;12.27;;;4.80;;
82558;SDS011;72227;42.004;21.364;2023-09-30T09:56:49;11.43;;;4.15;;
82558;SDS011;72227;42.004;21.364;2023-09-30T09:59:15;11.07;;;3.85;;
82558;SDS011;72227;42.004;21.364;2023-09-30T10:01:41;12.35;;;4.45;;
82558;SDS011;72227;42.004;21.364;2023-09-30T10:04:10;11.63;;;4.40;;
82558;SDS011;72227;42.004;21.364;2023-09-30T10:06:36;12.32;;;4.70;;
82558;SDS011;72227;42.004;21.364;2023-09-30T10:09:06;10.27;;;4.22;;
82558;SDS011;72227;42.004;21.364;2023-09-30T10:11:34;11.73;;;4.20;;
82558;SDS011;72227;42.004;21.364;2023-09-30T10:14:00;10.43;;;4.28;;
82558;SDS011;72227;42.004;21.364;2023-09-30T10:19:07;8.95;;;4.60;;
82558;SDS011;72227;42.004;21.364;2023-09-30T10:21:33;13.02;;;4.32;;
82558;SDS011;72227;42.004;21.364;2023-09-30T10:24:27;11.30;;;4.55;;
82558;SDS011;72227;42.004;21.364;2023-09-30T10:26:45;11.68;;;4.78;;
82558;SDS011;72227;42.004;21.364;2023-09-30T10:29:11;13.35;;;4.30;;
82558;SDS011;72227;42.004;21.364;2023-09-30T10:31:50;10.93;;;4.57;;
82558;SDS011;72227;42.004;21.364;2023-09-30T10:34:25;12.68;;;4.72;;
82558;SDS011;72227;42.004;21.364;2023-09-30T10:36:51;9.35;;;4.38;;
82558;SDS011;72227;42.004;21.364;2023-09-30T10:42:03;13.07;;;4.82;;
82558;SDS011;72227;42.004;21.364;2023-09-30T10:44:32;17.65;;;4.57;;
82558;SDS011;72227;42.004;21.364;2023-09-30T10:46:59;10.30;;;4.13;;
82558;SDS011;72227;42.004;21.364;2023-09-30T10:51:51;10.75;;;4.45;;
82558;SDS011;72227;42.004;21.364;2023-09-30T10:54:28;13.88;;;4.30;;
82558;SDS011;72227;42.004;21.364;2023-09-30T10:56:54;11.40;;;4.55;;
82558;SDS011;72227;42.004;21.364;2023-09-30T10:59:24;10.93;;;4.18;;
82558;SDS011;72227;42.004;21.364;2023-09-30T11:01:50;13.07;;;4.38;;
82558;SDS011;72227;42.004;21.364;2023-09-30T11:04:20;16.63;;;5.15;;
82558;SDS011;72227;42.004;21.364;2023-09-30T11:06:46;11.43;;;4.32;;
82558;SDS011;72227;42.004;21.364;2023-09-30T11:09:19;15.90;;;5.30;;
82558;SDS011;72227;42.004;21.364;2023-09-30T11:11:47;13.32;;;4.60;;
82558;SDS011;72227;42.004;21.364;2023-09-30T11:16:42;12.52;;;5.05;;
82558;SDS011;72227;42.004;21.364;2023-09-30T11:19:09;11.68;;;4.40;;
82558;SDS011;72227;42.004;21.364;2023-09-30T11:21:36;13.73;;;4.50;;
82558;SDS011;72227;42.004;21.364;2023-09-30T11:24:02;10.77;;;4.65;;
82558;SDS011;72227;42.004;21.364;2023-09-30T11:26:31;15.88;;;4.10;;
82558;SDS011;72227;42.004;21.364;2023-09-30T11:29:08;14.00;;;4.93;;
82558;SDS011;72227;42.004;21.364;2023-09-30T11:31:42;7.93;;;4.50;;
82558;SDS011;72227;42.004;21.364;2023-09-30T11:34:08;9.88;;;4.25;;
82558;SDS011;72227;42.004;21.364;2023-09-30T11:36:37;12.82;;;4.13;;
82558;SDS011;72227;42.004;21.364;2023-09-30T11:39:04;15.85;;;4.38;;
82558;SDS011;72227;42.004;21.364;2023-09-30T11:41:37;11.38;;;3.83;;
82558;SDS011;72227;42.004;21.364;2023-09-30T11:44:04;9.38;;;4.60;;
82558;SDS011;72227;42.004;21.364;2023-09-30T11:46:32;14.27;;;5.25;;
82558;SDS011;72227;42.004;21.364;2023-09-30T11:49:02;14.18;;;3.97;;
82558;SDS011;72227;42.004;21.364;2023-09-30T11:51:30;11.38;;;4.65;;
82558;SDS011;72227;42.004;21.364;2023-09-30T11:53:56;15.57;;;4.78;;
82558;SDS011;72227;42.004;21.364;2023-09-30T11:56:23;12.50;;;4.90;;
82558;SDS011;72227;42.004;21.364;2023-09-30T11:58:54;10.25;;;4.20;;
82558;SDS011;72227;42.004;21.364;2023-09-30T12:01:20;15.05;;;5.03;;
82558;SDS011;72227;42.004;21.364;2023-09-30T12:03:50;13.27;;;4.22;;
82558;SDS011;72227;42.004;21.364;2023-09-30T12:06:17;13.02;;;5.18;;
82558;SDS011;72227;42.004;21.364;2023-09-30T12:08:43;10.02;;;4.03;;
82558;SDS011;72227;42.004;21.364;2023-09-30T12:11:10;35.00;;;17.00;;
82558;SDS011;72227;42.004;21.364;2023-09-30T12:13:41;9.65;;;4.47;;
82558;SDS011;72227;42.004;21.364;2023-09-30T12:16:09;11.18;;;4.43;;
82558;SDS011;72227;42.004;21.364;2023-09-30T12:18:35;10.38;;;4.50;;
82558;SDS011;72227;42.004;21.364;2023-09-30T12:21:01;10.55;;;4.40;;
82558;SDS011;72227;42.004;21.364;2023-09-30T12:23:27;10.52;;;4.15;;
82558;SDS011;72227;42.004;21.364;2023-09-30T12:25:53;14.70;;;4.55;;
82558;SDS011;72227;42.004;21.364;2023-09-30T12:28:19;16.20;;;4.40;;
82558;SDS011;72227;42.004;21.364;2023-09-30T12:30:46;19.70;;;4.47;;
82558;SDS011;72227;42.004;21.364;2023-09-30T12:33:12;12.18;;;4.10;;
82558;SDS011;72227;42.004;21.364;2023-09-30T12:35:38;10.27;;;3.90;;
82558;SDS011;72227;42.004;21.364;2023-09-30T12:38:04;10.75;;;3.50;;
82558;SDS011;72227;42.004;21.364;2023-09-30T12:40:30;15.13;;;5.07;;
82558;SDS011;72227;42.004;21.364;2023-09-30T12:42:56;11.00;;;4.20;;
82558;SDS011;72227;42.004;21.364;2023-09-30T12:45:23;12.75;;;5.00;;
82558;SDS011;72227;42.004;21.364;2023-09-30T12:47:49;10.40;;;4.40;;
82558;SDS011;72227;42.004;21.364;2023-09-30T12:50:17;16.00;;;5.13;;
82558;SDS011;72227;42.004;21.364;2023-09-30T12:52:43;10.93;;;4.47;;
82558;SDS011;72227;42.004;21.364;2023-09-30T12:55:09;12.75;;;5.20;;
82558;SDS011;72227;42.004;21.364;2023-09-30T12:57:36;12.88;;;4.55;;
82558;SDS011;72227;42.004;21.364;2023-09-30T13:00:02;10.80;;;5.00;;
82558;SDS011;72227;42.004;21.364;2023-09-30T13:02:29;20.02;;;4.93;;
82558;SDS011;72227;42.004;21.364;2023-09-30T13:04:55;10.93;;;4.18;;
82558;SDS011;72227;42.004;21.364;2023-09-30T13:07:21;10.40;;;4.43;;
82558;SDS011;72227;42.004;21.364;2023-09-30T13:09:49;12.85;;;4.93;;
82558;SDS011;72227;42.004;21.364;2023-09-30T13:12:15;10.95;;;4.45;;
82558;SDS011;72227;42.004;21.364;2023-09-30T13:14:41;11.15;;;4.45;;
82558;SDS011;72227;42.004;21.364;2023-09-30T13:17:07;10.88;;;5.10;;
82558;SDS011;72227;42.004;21.364;2023-09-30T13:19:33;13.23;;;4.95;;
82558;SDS011;72227;42.004;21.364;2023-09-30T13:21:59;11.80;;;4.70;;
82558;SDS011;72227;42.004;21.364;2023-09-30T13:24:25;13.55;;;5.55;;
82558;SDS011;72227;42.004;21.364;2023-09-30T13:26:52;13.63;;;5.78;;
82558;SDS011;72227;42.004;21.364;2023-09-30T13:29:19;15.82;;;5.20;;
82558;SDS011;72227;42.004;21.364;2023-09-30T13:31:45;16.13;;;5.38;;
82558;SDS011;72227;42.004;21.364;2023-09-30T13:34:11;16.52;;;6.32;;
82558;SDS011;72227;42.004;21.364;2023-09-30T13:36:37;13.95;;;5.63;;
82558;SDS011;72227;42.004;21.364;2023-09-30T13:39:03;12.75;;;5.43;;
82558;SDS011;72227;42.004;21.364;2023-09-30T13:41:35;9.48;;;4.55;;
82558;SDS011;72227;42.004;21.364;2023-09-30T13:44:01;11.32;;;5.05;;
82558;SDS011;72227;42.004;21.364;2023-09-30T13:46:27;17.20;;;5.88;;
82558;SDS011;72227;42.004;21.364;2023-09-30T13:48:55;12.05;;;4.88;;
82558;SDS011;72227;42.004;21.364;2023-09-30T13:51:21;15.35;;;5.85;;
82558;SDS011;72227;42.004;21.364;2023-09-30T13:53:48;11.65;;;5.15;;
82558;SDS011;72227;42.004;21.364;2023-09-30T13:56:14;10.15;;;4.22;;
82558;SDS011;72227;42.004;21.364;2023-09-30T13:58:40;8.15;;;4.75;;
82558;SDS011;72227;42.004;21.364;2023-09-30T14:01:07;11.48;;;4.28;;
82558;SDS011;72227;42.004;21.364;2023-09-30T14:03:33;13.93;;;4.65;;
82558;SDS011;72227;42.004;21.364;2023-09-30T14:05:59;9.60;;;4.45;;
82558;SDS011;72227;42.004;21.364;2023-09-30T14:08:25;9.50;;;4.07;;
82558;SDS011;72227;42.004;21.364;2023-09-30T14:10:51;13.98;;;4.93;;
82558;SDS011;72227;42.004;21.364;2023-09-30T14:13:17;12.85;;;4.65;;
82558;SDS011;72227;42.004;21.364;2023-09-30T14:15:44;14.40;;;5.30;;
82558;SDS011;72227;42.004;21.364;2023-09-30T14:18:11;14.30;;;5.25;;
82558;SDS011;72227;42.004;21.364;2023-09-30T14:20:38;8.52;;;4.72;;
82558;SDS011;72227;42.004;21.364;2023-09-30T14:23:04;10.18;;;5.22;;
82558;SDS011;72227;42.004;21.364;2023-09-30T14:25:30;12.25;;;5.25;;
82558;SDS011;72227;42.004;21.364;2023-09-30T14:27:56;11.82;;;5.53;;
82558;SDS011;72227;42.004;21.364;2023-09-30T14:30:25;9.85;;;4.82;;
82558;SDS011;72227;42.004;21.364;2023-09-30T14:32:51;13.30;;;5.78;;
82558;SDS011;72227;42.004;21.364;2023-09-30T14:35:19;10.10;;;5.63;;
82558;SDS011;72227;42.004;21.364;2023-09-30T14:37:45;9.23;;;4.68;;
82558;SDS011;72227;42.004;21.364;2023-09-30T14:40:11;16.42;;;6.35;;
82558;SDS011;72227;42.004;21.364;2023-09-30T14:42:38;12.40;;;4.95;;
82558;SDS011;72227;42.004;21.364;2023-09-30T14:45:04;11.75;;;4.68;;
82558;SDS011;72227;42.004;21.364;2023-09-30T14:47:30;11.77;;;4.78;;
82558;SDS011;72227;42.004;21.364;2023-09-30T14:49:56;8.73;;;4.70;;
82558;SDS011;72227;42.004;21.364;2023-09-30T14:52:25;13.95;;;5.03;;
82558;SDS011;72227;42.004;21.364;2023-09-30T14:54:51;10.60;;;4.35;;
82558;SDS011;72227;42.004;21.364;2023-09-30T14:57:17;12.32;;;5.00;;
82558;SDS011;72227;42.004;21.364;2023-09-30T14:59:45;11.75;;;4.93;;
82558;SDS011;72227;42.004;21.364;2023-09-30T15:02:11;13.95;;;4.70;;
82558;SDS011;72227;42.004;21.364;2023-09-30T15:04:37;11.90;;;5.45;;
82558;SDS011;72227;42.004;21.364;2023-09-30T15:07:03;11.85;;;5.20;;
82558;SDS011;72227;42.004;21.364;2023-09-30T15:09:29;16.52;;;5.53;;
82558;SDS011;72227;42.004;21.364;2023-09-30T15:11:55;11.73;;;5.00;;
82558;SDS011;72227;42.004;21.364;2023-09-30T15:14:23;14.23;;;4.78;;